createdAt,value
2023-05-02T00:00:36.749Z,0.00
2023-05-02T00:01:36.816Z,0.00
2023-05-02T00:02:36.792Z,0.00
2023-05-02T00:03:36.769Z,0.00
2023-05-02T00:04:36.786Z,0.00
2023-05-02T00:05:36.728Z,0.00
2023-05-02T00:06:36.771Z,0.00
2023-05-02T00:07:36.691Z,0.00
2023-05-02T00:08:36.677Z,0.00
2023-05-02T00:09:36.660Z,0.00
2023-05-02T00:10:36.653Z,0.00
2023-05-02T00:11:36.644Z,0.00
2023-05-02T00:12:36.664Z,0.00
2023-05-02T00:13:36.607Z,0.00
2023-05-02T00:14:36.608Z,0.00
2023-05-02T00:15:36.613Z,0.00
2023-05-02T00:16:36.619Z,0.00
2023-05-02T00:17:36.619Z,0.00
2023-05-02T00:18:36.542Z,0.00
2023-05-02T00:19:36.583Z,0.00
2023-05-02T00:20:36.534Z,0.00
2023-05-02T00:21:36.507Z,0.00
2023-05-02T00:22:36.592Z,0.00
2023-05-02T00:23:36.513Z,0.00
2023-05-02T00:24:36.469Z,0.00
2023-05-02T00:25:36.485Z,0.00
2023-05-02T00:26:36.452Z,0.00
2023-05-02T00:27:36.466Z,0.00
2023-05-02T00:28:36.433Z,0.00
2023-05-02T00:29:36.451Z,0.00
2023-05-02T00:30:36.436Z,0.00
2023-05-02T00:31:36.482Z,0.00
2023-05-02T00:32:36.455Z,0.00
2023-05-02T00:33:36.415Z,0.00
2023-05-02T00:34:36.372Z,0.00
2023-05-02T00:35:36.358Z,0.00
2023-05-02T00:36:36.387Z,0.00
2023-05-02T00:37:36.334Z,0.00
2023-05-02T00:38:36.387Z,0.00
2023-05-02T00:39:36.420Z,0.00
2023-05-02T00:40:36.293Z,0.00
2023-05-02T00:41:36.302Z,0.00
2023-05-02T00:42:36.560Z,0.00
2023-05-02T00:43:36.287Z,0.00
2023-05-02T00:44:36.268Z,0.00
2023-05-02T00:45:36.234Z,0.00
2023-05-02T00:46:36.265Z,0.00
2023-05-02T00:47:36.257Z,0.00
2023-05-02T00:48:36.236Z,0.00
2023-05-02T00:49:36.194Z,0.00
2023-05-02T00:50:36.198Z,0.00
2023-05-02T00:51:36.195Z,0.00
2023-05-02T00:52:36.166Z,0.00
2023-05-02T00:53:36.150Z,0.00
2023-05-02T00:54:36.133Z,0.00
2023-05-02T00:55:36.401Z,0.00
2023-05-02T00:56:36.120Z,0.00
2023-05-02T00:57:36.096Z,0.00
2023-05-02T00:58:36.091Z,0.00
2023-05-02T00:59:36.092Z,0.00
2023-05-02T01:00:36.071Z,0.00
2023-05-02T01:01:36.085Z,0.00
2023-05-02T01:02:36.077Z,0.00
2023-05-02T01:03:36.088Z,0.00
2023-05-02T01:04:36.015Z,0.00
2023-05-02T01:05:36.020Z,0.00
2023-05-02T01:06:36.067Z,0.00
2023-05-02T01:07:35.984Z,0.00
2023-05-02T01:08:35.980Z,0.00
2023-05-02T01:09:35.990Z,0.00
2023-05-02T01:10:35.955Z,0.00
2023-05-02T01:11:36.143Z,0.00
2023-05-02T01:12:35.928Z,0.00
2023-05-02T01:13:35.939Z,0.00
2023-05-02T01:14:35.919Z,0.00
2023-05-02T01:15:35.898Z,0.00
2023-05-02T01:16:36.029Z,0.00
2023-05-02T01:17:35.942Z,0.00
2023-05-02T01:18:35.954Z,0.00
2023-05-02T01:19:35.839Z,0.00
2023-05-02T01:20:35.839Z,0.00
2023-05-02T01:21:35.820Z,0.00
2023-05-02T01:22:35.819Z,0.00
2023-05-02T01:23:35.811Z,0.00
2023-05-02T01:24:35.790Z,0.00
2023-05-02T01:25:35.766Z,0.00
2023-05-02T01:26:35.775Z,0.00
2023-05-02T01:27:35.782Z,0.00
2023-05-02T01:28:35.731Z,0.00
2023-05-02T01:29:35.726Z,0.00
2023-05-02T01:30:35.763Z,0.00
2023-05-02T01:31:35.772Z,0.00
2023-05-02T01:32:35.692Z,0.00
2023-05-02T01:33:35.676Z,0.00
2023-05-02T01:34:35.682Z,0.00
2023-05-02T01:35:35.673Z,0.00
2023-05-02T01:36:35.779Z,0.00
2023-05-02T01:37:35.637Z,0.00
2023-05-02T01:38:35.960Z,0.00
2023-05-02T01:39:35.632Z,0.00
2023-05-02T01:40:35.616Z,0.00
2023-05-02T01:41:35.717Z,0.00
2023-05-02T01:42:35.586Z,0.00
2023-05-02T01:43:35.587Z,0.00
2023-05-02T01:44:35.600Z,0.00
2023-05-02T01:45:35.544Z,0.00
2023-05-02T01:46:35.610Z,0.00
2023-05-02T01:47:35.567Z,0.00
2023-05-02T01:48:35.571Z,0.00
2023-05-02T01:49:35.493Z,0.00
2023-05-02T01:50:35.532Z,0.00
2023-05-02T01:51:35.479Z,0.00
2023-05-02T01:52:35.486Z,0.00
2023-05-02T01:53:35.452Z,0.00
2023-05-02T01:54:35.448Z,0.00
2023-05-02T01:55:35.428Z,0.00
2023-05-02T01:56:35.428Z,0.00
2023-05-02T01:57:35.433Z,0.00
2023-05-02T01:58:35.419Z,0.00
2023-05-02T01:59:35.401Z,0.00
2023-05-02T02:00:35.474Z,0.00
2023-05-02T02:01:35.552Z,0.00
2023-05-02T02:02:35.419Z,0.00
2023-05-02T02:03:35.369Z,0.00
2023-05-02T02:04:35.347Z,0.00
2023-05-02T02:05:35.367Z,0.00
2023-05-02T02:06:35.422Z,0.00
2023-05-02T02:07:35.366Z,0.00
2023-05-02T02:08:35.301Z,0.00
2023-05-02T02:09:35.288Z,0.00
2023-05-02T02:10:35.298Z,0.00
2023-05-02T02:11:35.255Z,0.00
2023-05-02T02:12:35.243Z,0.00
2023-05-02T02:13:35.236Z,0.00
2023-05-02T02:14:35.269Z,0.00
2023-05-02T02:15:35.233Z,0.00
2023-05-02T02:16:35.242Z,0.00
2023-05-02T02:17:35.215Z,0.00
2023-05-02T02:18:35.193Z,0.00
2023-05-02T02:19:35.165Z,0.00
2023-05-02T02:20:35.168Z,0.00
2023-05-02T02:21:35.172Z,0.00
2023-05-02T02:22:35.126Z,0.00
2023-05-02T02:23:35.146Z,0.00
2023-05-02T02:24:35.157Z,0.00
2023-05-02T02:25:35.119Z,0.00
2023-05-02T02:26:35.102Z,0.00
2023-05-02T02:27:35.099Z,0.00
2023-05-02T02:28:35.183Z,0.00
2023-05-02T02:29:35.083Z,0.00
2023-05-02T02:30:35.104Z,0.00
2023-05-02T02:31:35.140Z,0.00
2023-05-02T02:32:35.065Z,0.00
2023-05-02T02:33:35.024Z,0.00
2023-05-02T02:34:35.091Z,0.00
2023-05-02T02:35:35.010Z,0.00
2023-05-02T02:36:34.977Z,0.00
2023-05-02T02:37:34.968Z,0.00
2023-05-02T02:38:34.968Z,0.00
2023-05-02T02:39:34.961Z,0.00
2023-05-02T02:40:34.931Z,0.00
2023-05-02T02:41:34.941Z,0.00
2023-05-02T02:42:34.914Z,0.00
2023-05-02T02:43:34.914Z,0.00
2023-05-02T02:44:34.969Z,0.00
2023-05-02T02:45:43.443Z,0.00
2023-05-02T02:46:34.963Z,0.00
2023-05-02T02:47:35.507Z,0.00
2023-05-02T02:48:34.890Z,0.00
2023-05-02T02:49:34.829Z,0.00
2023-05-02T02:50:34.809Z,0.00
2023-05-02T02:51:34.799Z,0.00
2023-05-02T02:52:35.078Z,0.00
2023-05-02T02:53:34.808Z,0.00
2023-05-02T02:54:34.822Z,0.00
2023-05-02T02:55:34.756Z,0.00
2023-05-02T02:56:34.745Z,0.00
2023-05-02T02:57:34.737Z,0.00
2023-05-02T02:58:34.794Z,0.00
2023-05-02T02:59:34.728Z,4.00
2023-05-02T03:00:34.705Z,4.00
2023-05-02T03:01:34.755Z,4.00
2023-05-02T03:02:34.730Z,0.00
2023-05-02T03:03:34.741Z,4.00
2023-05-02T03:04:34.660Z,4.00
2023-05-02T03:05:34.643Z,8.00
2023-05-02T03:06:34.743Z,4.00
2023-05-02T03:07:34.626Z,8.00
2023-05-02T03:08:34.641Z,8.00
2023-05-02T03:09:34.619Z,12.00
2023-05-02T03:10:34.599Z,12.00
2023-05-02T03:11:34.586Z,12.00
2023-05-02T03:12:34.573Z,16.00
2023-05-02T03:13:34.571Z,16.00
2023-05-02T03:14:34.548Z,16.00
2023-05-02T03:15:34.549Z,20.00
2023-05-02T03:16:34.584Z,24.00
2023-05-02T03:17:34.571Z,28.00
2023-05-02T03:18:34.507Z,32.00
2023-05-02T03:19:34.522Z,36.00
2023-05-02T03:20:35.602Z,44.00
2023-05-02T03:21:34.483Z,44.00
2023-05-02T03:22:34.477Z,56.00
2023-05-02T03:23:34.457Z,60.00
2023-05-02T03:24:34.468Z,64.00
2023-05-02T03:25:34.450Z,76.00
2023-05-02T03:26:34.431Z,80.00
2023-05-02T03:27:34.524Z,92.00
2023-05-02T03:28:34.414Z,100.00
2023-05-02T03:29:34.406Z,108.00
2023-05-02T03:30:34.389Z,120.00
2023-05-02T03:31:34.385Z,128.00
2023-05-02T03:32:34.414Z,140.00
2023-05-02T03:33:34.373Z,156.00
2023-05-02T03:34:34.581Z,164.00
2023-05-02T03:35:34.331Z,180.00
2023-05-02T03:36:34.307Z,196.00
2023-05-02T03:37:34.313Z,216.00
2023-05-02T03:38:34.306Z,232.00
2023-05-02T03:39:34.285Z,252.00
2023-05-02T03:40:34.267Z,280.00
2023-05-02T03:41:34.289Z,304.00
2023-05-02T03:42:34.234Z,332.00
2023-05-02T03:43:34.239Z,364.00
2023-05-02T03:44:34.232Z,400.00
2023-05-02T03:45:34.227Z,432.00
2023-05-02T03:46:34.220Z,456.00
2023-05-02T03:47:34.220Z,484.00
2023-05-02T03:48:34.182Z,516.00
2023-05-02T03:49:34.163Z,552.00
2023-05-02T03:50:34.172Z,580.00
2023-05-02T03:51:34.196Z,604.00
2023-05-02T03:52:34.136Z,628.00
2023-05-02T03:53:34.122Z,656.00
2023-05-02T03:54:34.120Z,684.00
2023-05-02T03:55:34.097Z,708.00
2023-05-02T03:56:34.096Z,736.00
2023-05-02T03:57:34.076Z,768.00
2023-05-02T03:58:34.970Z,816.00
2023-05-02T03:59:34.073Z,860.00
2023-05-02T04:00:34.087Z,912.00
2023-05-02T04:01:34.107Z,960.00
2023-05-02T04:02:34.124Z,1016.00
2023-05-02T04:03:34.129Z,1060.00
2023-05-02T04:04:34.066Z,1100.00
2023-05-02T04:05:34.194Z,1152.00
2023-05-02T04:06:33.999Z,1208.00
2023-05-02T04:07:34.183Z,1268.00
2023-05-02T04:08:33.979Z,1320.00
2023-05-02T04:09:33.971Z,1360.00
2023-05-02T04:10:33.993Z,1396.00
2023-05-02T04:11:33.945Z,1432.00
2023-05-02T04:12:33.917Z,1476.00
2023-05-02T04:13:33.900Z,1528.00
2023-05-02T04:14:33.984Z,1580.00
2023-05-02T04:15:33.911Z,1644.00
2023-05-02T04:16:33.929Z,1708.00
2023-05-02T04:17:33.897Z,1784.00
2023-05-02T04:18:33.854Z,1860.00
2023-05-02T04:19:33.871Z,1928.00
2023-05-02T04:20:33.832Z,1972.00
2023-05-02T04:21:33.840Z,2012.00
2023-05-02T04:22:33.802Z,2044.00
2023-05-02T04:23:33.803Z,2080.00
2023-05-02T04:24:33.773Z,2112.00
2023-05-02T04:25:33.776Z,2140.00
2023-05-02T04:26:33.766Z,2176.00
2023-05-02T04:27:33.739Z,2212.00
2023-05-02T04:28:33.740Z,2256.00
2023-05-02T04:29:33.739Z,2312.00
2023-05-02T04:30:33.736Z,2372.00
2023-05-02T04:31:33.791Z,2444.00
2023-05-02T04:32:33.732Z,2528.00
2023-05-02T04:33:33.688Z,2640.00
2023-05-02T04:34:33.661Z,2780.00
2023-05-02T04:35:33.679Z,2944.00
2023-05-02T04:36:33.641Z,3104.00
2023-05-02T04:37:33.658Z,3240.00
2023-05-02T04:38:34.011Z,3332.00
2023-05-02T04:39:33.640Z,3412.00
2023-05-02T04:40:33.782Z,3504.00
2023-05-02T04:41:33.605Z,3620.00
2023-05-02T04:42:33.685Z,3760.00
2023-05-02T04:43:33.583Z,3920.00
2023-05-02T04:44:33.569Z,4088.00
2023-05-02T04:45:33.722Z,4248.00
2023-05-02T04:46:33.623Z,4400.00
2023-05-02T04:47:33.568Z,4552.00
2023-05-02T04:48:33.541Z,4676.00
2023-05-02T04:49:33.520Z,4756.00
2023-05-02T04:50:33.496Z,4812.00
2023-05-02T04:51:33.477Z,4828.00
2023-05-02T04:52:33.729Z,4844.00
2023-05-02T04:53:33.487Z,4840.00
2023-05-02T04:54:33.517Z,4816.00
2023-05-02T04:55:33.447Z,4776.00
2023-05-02T04:56:33.434Z,4740.00
2023-05-02T04:57:33.431Z,4740.00
2023-05-02T04:58:33.418Z,4784.00
2023-05-02T04:59:33.420Z,4888.00
2023-05-02T05:00:33.379Z,5016.00
2023-05-02T05:01:33.434Z,5124.00
2023-05-02T05:02:33.411Z,5232.00
2023-05-02T05:03:33.567Z,5348.00
2023-05-02T05:04:33.338Z,5428.00
2023-05-02T05:05:33.359Z,5416.00
2023-05-02T05:06:33.351Z,5400.00
2023-05-02T05:07:33.303Z,5384.00
2023-05-02T05:08:33.304Z,5396.00
2023-05-02T05:09:33.269Z,5420.00
2023-05-02T05:10:33.264Z,5440.00
2023-05-02T05:11:33.352Z,5460.00
2023-05-02T05:12:33.242Z,5444.00
2023-05-02T05:13:33.249Z,5452.00
2023-05-02T05:14:33.226Z,5532.00
2023-05-02T05:15:33.225Z,5592.00
2023-05-02T05:16:33.249Z,5636.00
2023-05-02T05:17:33.250Z,5624.00
2023-05-02T05:18:33.228Z,5580.00
2023-05-02T05:19:33.180Z,5540.00
2023-05-02T05:20:33.140Z,5524.00
2023-05-02T05:21:33.150Z,5492.00
2023-05-02T05:22:33.130Z,5348.00
2023-05-02T05:23:33.212Z,5136.00
2023-05-02T05:24:33.111Z,4940.00
2023-05-02T05:25:33.102Z,4764.00
2023-05-02T05:26:33.091Z,4688.00
2023-05-02T05:27:33.080Z,4696.00
2023-05-02T05:28:33.085Z,4776.00
2023-05-02T05:29:33.049Z,4888.00
2023-05-02T05:30:33.037Z,5024.00
2023-05-02T05:31:33.053Z,5080.00
2023-05-02T05:32:33.039Z,5232.00
2023-05-02T05:33:33.053Z,5524.00
2023-05-02T05:34:33.013Z,5912.00
2023-05-02T05:35:32.995Z,6324.00
2023-05-02T05:36:32.962Z,6556.00
2023-05-02T05:37:33.005Z,6688.00
2023-05-02T05:38:32.962Z,6856.00
2023-05-02T05:39:33.046Z,7016.00
2023-05-02T05:40:32.927Z,7236.00
2023-05-02T05:41:32.926Z,7380.00
2023-05-02T05:42:32.904Z,7540.00
2023-05-02T05:43:32.924Z,7700.00
2023-05-02T05:44:32.867Z,7836.00
2023-05-02T05:45:32.884Z,7956.00
2023-05-02T05:46:32.933Z,8120.00
2023-05-02T05:47:33.065Z,8228.00
2023-05-02T05:48:32.856Z,8372.00
2023-05-02T05:49:32.817Z,8472.00
2023-05-02T05:50:32.817Z,8580.00
2023-05-02T05:51:32.798Z,8644.00
2023-05-02T05:52:32.798Z,8760.00
2023-05-02T05:53:32.768Z,8896.00
2023-05-02T05:54:32.770Z,9040.00
2023-05-02T05:55:32.774Z,9156.00
2023-05-02T05:56:32.761Z,9284.00
2023-05-02T05:57:32.738Z,9412.00
2023-05-02T05:58:32.807Z,9500.00
2023-05-02T05:59:32.713Z,9596.00
2023-05-02T06:00:32.692Z,9720.00
2023-05-02T06:01:32.687Z,9828.00
2023-05-02T06:02:32.719Z,9992.00
2023-05-02T06:03:33.055Z,10120.00
2023-05-02T06:04:32.681Z,10300.00
2023-05-02T06:05:32.653Z,10436.00
2023-05-02T06:06:32.743Z,10648.00
2023-05-02T06:07:32.645Z,10876.00
2023-05-02T06:08:32.621Z,11128.00
2023-05-02T06:09:32.592Z,11420.00
2023-05-02T06:10:32.617Z,11600.00
2023-05-02T06:11:32.575Z,11856.00
2023-05-02T06:12:32.589Z,12132.00
2023-05-02T06:13:32.549Z,12440.00
2023-05-02T06:14:32.556Z,12532.00
2023-05-02T06:15:32.719Z,12652.00
2023-05-02T06:16:32.533Z,12516.00
2023-05-02T06:17:32.579Z,12368.00
2023-05-02T06:18:32.492Z,12856.00
2023-05-02T06:19:32.484Z,13192.00
2023-05-02T06:20:32.479Z,13440.00
2023-05-02T06:21:32.496Z,13448.00
2023-05-02T06:22:32.456Z,13524.00
2023-05-02T06:23:32.448Z,13692.00
2023-05-02T06:24:32.436Z,13980.00
2023-05-02T06:25:32.410Z,14316.00
2023-05-02T06:26:32.407Z,14544.00
2023-05-02T06:27:33.692Z,14632.00
2023-05-02T06:28:32.447Z,14720.00
2023-05-02T06:29:33.020Z,14920.00
2023-05-02T06:30:32.360Z,14988.00
2023-05-02T06:31:32.722Z,15220.00
2023-05-02T06:32:32.427Z,15468.00
2023-05-02T06:33:32.345Z,15792.00
2023-05-02T06:34:32.308Z,16040.00
2023-05-02T06:35:32.317Z,16480.00
2023-05-02T06:36:32.332Z,16800.00
2023-05-02T06:37:32.276Z,17248.00
2023-05-02T06:38:32.538Z,17984.00
2023-05-02T06:39:32.269Z,18752.00
2023-05-02T06:40:32.244Z,19904.00
2023-05-02T06:41:32.253Z,22560.00
2023-05-02T06:42:32.232Z,26592.00
2023-05-02T06:43:32.221Z,29920.00
2023-05-02T06:44:32.210Z,32384.00
2023-05-02T06:45:32.203Z,33728.00
2023-05-02T06:46:32.257Z,34304.00
2023-05-02T06:47:32.395Z,34720.00
2023-05-02T06:48:32.180Z,34432.00
2023-05-02T06:49:32.147Z,35392.00
2023-05-02T06:50:32.168Z,36000.00
2023-05-02T06:51:32.119Z,36640.00
2023-05-02T06:52:32.129Z,36640.00
2023-05-02T06:53:33.065Z,37344.00
2023-05-02T06:54:32.095Z,38368.00
2023-05-02T06:55:32.085Z,40544.00
2023-05-02T06:56:32.058Z,41984.00
2023-05-02T06:57:32.052Z,43808.00
2023-05-02T06:58:32.056Z,45120.00
2023-05-02T06:59:32.047Z,45824.00
2023-05-02T07:00:32.094Z,46912.00
2023-05-02T07:01:32.045Z,47040.00
2023-05-02T07:02:32.044Z,45088.00
2023-05-02T07:03:32.024Z,29984.00
2023-05-02T07:04:32.006Z,21856.00
2023-05-02T07:05:31.974Z,19648.00
2023-05-02T07:06:31.993Z,17568.00
2023-05-02T07:07:31.954Z,16928.00
2023-05-02T07:08:31.953Z,20256.00
2023-05-02T07:09:31.943Z,18752.00
2023-05-02T07:10:31.923Z,25312.00
2023-05-02T07:11:31.899Z,33280.00
2023-05-02T07:12:31.903Z,24480.00
2023-05-02T07:13:31.892Z,18240.00
2023-05-02T07:14:31.881Z,16512.00
2023-05-02T07:15:31.857Z,18528.00
2023-05-02T07:16:31.884Z,18144.00
2023-05-02T07:17:31.893Z,32192.00
2023-05-02T07:18:31.873Z,20512.00
2023-05-02T07:19:31.813Z,21184.00
2023-05-02T07:20:31.905Z,41728.00
2023-05-02T07:21:31.864Z,33248.00
2023-05-02T07:22:31.775Z,21536.00
2023-05-02T07:23:31.991Z,21120.00
2023-05-02T07:24:31.751Z,20832.00
2023-05-02T07:25:31.771Z,17280.00
2023-05-02T07:26:31.733Z,14632.00
2023-05-02T07:27:31.720Z,13688.00
2023-05-02T07:28:31.718Z,25312.00
2023-05-02T07:29:31.699Z,21248.00
2023-05-02T07:30:31.713Z,19200.00
2023-05-02T07:31:31.702Z,67264.00
2023-05-02T07:32:31.921Z,44256.00
2023-05-02T07:33:31.669Z,62752.00
2023-05-02T07:34:31.668Z,27072.00
2023-05-02T07:35:31.708Z,14300.00
2023-05-02T07:36:31.614Z,18496.00
2023-05-02T07:37:34.090Z,56096.00
2023-05-02T07:38:31.633Z,14188.00
2023-05-02T07:39:31.591Z,12872.00
2023-05-02T07:40:31.581Z,11456.00
2023-05-02T07:41:31.571Z,14980.00
2023-05-02T07:42:31.768Z,17632.00
2023-05-02T07:43:31.564Z,15392.00
2023-05-02T07:44:31.530Z,9652.00
2023-05-02T07:45:31.522Z,8220.00
2023-05-02T07:46:31.527Z,9908.00
2023-05-02T07:47:31.569Z,9860.00
2023-05-02T07:48:31.490Z,8492.00
2023-05-02T07:49:31.493Z,11208.00
2023-05-02T07:50:31.471Z,15108.00
2023-05-02T07:51:31.514Z,22016.00
2023-05-02T07:52:31.458Z,13680.00
2023-05-02T07:53:31.433Z,13112.00
2023-05-02T07:54:31.426Z,10896.00
2023-05-02T07:55:31.427Z,9760.00
2023-05-02T07:56:31.413Z,9936.00
2023-05-02T07:57:31.389Z,9268.00
2023-05-02T07:58:31.377Z,8192.00
2023-05-02T07:59:31.638Z,6896.00
2023-05-02T08:00:31.360Z,5972.00
2023-05-02T08:01:31.446Z,6796.00
2023-05-02T08:02:31.529Z,6968.00
2023-05-02T08:03:31.669Z,6268.00
2023-05-02T08:04:31.695Z,5972.00
2023-05-02T08:05:31.325Z,6340.00
2023-05-02T08:06:31.316Z,7964.00
2023-05-02T08:07:31.287Z,8952.00
2023-05-02T08:08:31.272Z,8012.00
2023-05-02T08:09:31.277Z,7808.00
2023-05-02T08:10:31.333Z,7504.00
2023-05-02T08:11:31.396Z,6524.00
2023-05-02T08:12:31.230Z,6904.00
2023-05-02T08:13:31.571Z,7632.00
2023-05-02T08:14:31.211Z,7376.00
2023-05-02T08:15:31.200Z,7712.00
2023-05-02T08:16:31.216Z,8932.00
2023-05-02T08:17:31.179Z,9332.00
2023-05-02T08:18:31.171Z,8992.00
2023-05-02T08:19:31.147Z,8756.00
2023-05-02T08:20:31.157Z,9340.00
2023-05-02T08:21:31.131Z,9872.00
2023-05-02T08:22:31.115Z,9828.00
2023-05-02T08:23:31.147Z,10180.00
2023-05-02T08:24:31.102Z,11320.00
2023-05-02T08:25:31.079Z,11288.00
2023-05-02T08:26:31.072Z,12556.00
2023-05-02T08:27:31.067Z,15284.00
2023-05-02T08:28:31.055Z,14704.00
2023-05-02T08:29:31.048Z,14876.00
2023-05-02T08:30:31.035Z,14772.00
2023-05-02T08:31:31.085Z,13504.00
2023-05-02T08:32:31.010Z,12232.00
2023-05-02T08:33:31.009Z,12164.00
2023-05-02T08:34:30.990Z,11700.00
2023-05-02T08:35:30.968Z,10636.00
2023-05-02T08:36:30.956Z,9532.00
2023-05-02T08:37:30.954Z,9260.00
2023-05-02T08:38:30.937Z,8976.00
2023-05-02T08:39:30.949Z,9692.00
2023-05-02T08:40:40.963Z,10436.00
2023-05-02T08:41:31.914Z,10888.00
2023-05-02T08:42:30.893Z,10428.00
2023-05-02T08:43:30.880Z,9640.00
2023-05-02T08:44:31.135Z,10276.00
2023-05-02T08:45:38.607Z,11156.00
2023-05-02T08:46:30.843Z,10836.00
2023-05-02T08:47:30.859Z,9892.00
2023-05-02T08:48:30.824Z,9008.00
2023-05-02T08:49:30.849Z,8872.00
2023-05-02T08:50:30.787Z,7708.00
2023-05-02T08:51:30.779Z,7304.00
2023-05-02T08:52:30.762Z,8388.00
2023-05-02T08:53:30.750Z,9920.00
2023-05-02T08:54:30.769Z,10680.00
2023-05-02T08:55:30.750Z,11476.00
2023-05-02T08:56:30.726Z,12872.00
2023-05-02T08:57:30.723Z,13532.00
2023-05-02T08:58:30.711Z,12748.00
2023-05-02T08:59:30.689Z,11196.00
2023-05-02T09:00:30.709Z,10220.00
2023-05-02T09:01:30.678Z,11084.00
2023-05-02T09:02:30.739Z,10772.00
2023-05-02T09:03:30.661Z,9012.00
2023-05-02T09:04:30.678Z,9388.00
2023-05-02T09:05:30.659Z,9456.00
2023-05-02T09:06:30.832Z,8456.00
2023-05-02T09:07:30.603Z,8064.00
2023-05-02T09:08:30.681Z,8740.00
2023-05-02T09:09:30.575Z,9328.00
2023-05-02T09:10:30.611Z,8988.00
2023-05-02T09:11:30.575Z,7548.00
2023-05-02T09:12:30.538Z,6904.00
2023-05-02T09:13:31.974Z,7300.00
2023-05-02T09:14:30.539Z,8116.00
2023-05-02T09:15:30.510Z,8392.00
2023-05-02T09:16:30.553Z,7524.00
2023-05-02T09:17:30.513Z,6992.00
2023-05-02T09:18:30.468Z,7348.00
2023-05-02T09:19:30.479Z,7340.00
2023-05-02T09:20:30.456Z,7344.00
2023-05-02T09:21:30.437Z,6764.00
2023-05-02T09:22:30.428Z,6196.00
2023-05-02T09:23:30.447Z,6092.00
2023-05-02T09:24:30.446Z,7104.00
2023-05-02T09:25:30.456Z,9556.00
2023-05-02T09:26:31.754Z,14180.00
2023-05-02T09:27:30.454Z,19648.00
2023-05-02T09:28:30.372Z,20960.00
2023-05-02T09:29:30.348Z,20704.00
2023-05-02T09:30:30.340Z,19360.00
2023-05-02T09:31:49.862Z,19392.00
2023-05-02T09:32:31.340Z,24704.00
2023-05-02T09:33:30.327Z,27360.00
2023-05-02T09:34:30.300Z,24768.00
2023-05-02T09:35:30.287Z,21216.00
2023-05-02T09:36:30.275Z,15600.00
2023-05-02T09:37:30.549Z,11456.00
2023-05-02T09:38:30.634Z,8040.00
2023-05-02T09:39:30.249Z,5932.00
2023-05-02T09:40:30.231Z,4796.00
2023-05-02T09:41:30.211Z,3968.00
2023-05-02T09:42:31.105Z,3360.00
2023-05-02T09:43:31.193Z,2968.00
2023-05-02T09:44:32.826Z,2712.00
2023-05-02T09:45:30.167Z,2480.00
2023-05-02T09:46:30.226Z,2232.00
2023-05-02T09:47:30.201Z,2052.00
2023-05-02T09:48:30.136Z,1900.00
2023-05-02T09:49:30.302Z,1852.00
2023-05-02T09:50:30.114Z,2112.00
2023-05-02T09:51:30.139Z,2180.00
2023-05-02T09:52:30.092Z,2144.00
2023-05-02T09:53:30.089Z,2436.00
2023-05-02T09:54:30.065Z,3404.00
2023-05-02T09:55:30.070Z,5044.00
2023-05-02T09:56:30.044Z,6728.00
2023-05-02T09:57:30.035Z,7664.00
2023-05-02T09:58:30.046Z,8504.00
2023-05-02T09:59:30.052Z,8284.00
2023-05-02T10:00:30.008Z,8496.00
2023-05-02T10:01:30.035Z,9196.00
2023-05-02T10:02:30.707Z,10160.00
2023-05-02T10:03:30.031Z,11360.00
2023-05-02T10:04:29.988Z,12128.00
2023-05-02T10:05:30.068Z,13440.00
2023-05-02T10:06:29.980Z,15516.00
2023-05-02T10:07:29.919Z,14292.00
2023-05-02T10:08:29.950Z,12600.00
2023-05-02T10:09:29.923Z,11768.00
2023-05-02T10:10:29.885Z,10800.00
2023-05-02T10:11:29.877Z,10104.00
2023-05-02T10:12:30.097Z,10016.00
2023-05-02T10:13:29.857Z,11016.00
2023-05-02T10:14:29.866Z,12744.00
2023-05-02T10:15:29.927Z,15164.00
2023-05-02T10:16:29.899Z,17888.00
2023-05-02T10:17:30.167Z,21664.00
2023-05-02T10:18:29.798Z,42400.00
2023-05-02T10:19:29.783Z,20896.00
2023-05-02T10:20:29.779Z,18464.00
2023-05-02T10:21:29.785Z,16384.00
2023-05-02T10:22:29.778Z,14676.00
2023-05-02T10:23:29.757Z,13168.00
2023-05-02T10:24:29.733Z,11632.00
2023-05-02T10:25:29.732Z,10580.00
2023-05-02T10:26:29.710Z,11448.00
2023-05-02T10:27:29.767Z,11904.00
2023-05-02T10:28:29.704Z,9772.00
2023-05-02T10:29:29.678Z,6656.00
2023-05-02T10:30:29.667Z,4660.00
2023-05-02T10:31:29.754Z,3972.00
2023-05-02T10:32:29.966Z,4372.00
2023-05-02T10:33:29.631Z,5632.00
2023-05-02T10:34:29.635Z,7492.00
2023-05-02T10:35:29.618Z,8044.00
2023-05-02T10:36:29.611Z,8304.00
2023-05-02T10:37:29.587Z,8060.00
2023-05-02T10:38:29.589Z,7204.00
2023-05-02T10:39:29.601Z,6460.00
2023-05-02T10:40:29.563Z,7208.00
2023-05-02T10:41:29.543Z,9444.00
2023-05-02T10:42:29.533Z,12396.00
2023-05-02T10:43:29.514Z,16048.00
2023-05-02T10:44:29.524Z,20512.00
2023-05-02T10:45:29.527Z,23040.00
2023-05-02T10:46:29.521Z,22080.00
2023-05-02T10:47:29.493Z,19136.00
2023-05-02T10:48:29.478Z,15304.00
2023-05-02T10:49:29.476Z,14724.00
2023-05-02T10:50:32.216Z,15424.00
2023-05-02T10:51:29.429Z,16336.00
2023-05-02T10:52:29.444Z,15824.00
2023-05-02T10:53:29.430Z,15368.00
2023-05-02T10:54:29.398Z,15600.00
2023-05-02T10:55:29.422Z,15160.00
2023-05-02T10:56:29.438Z,15124.00
2023-05-02T10:57:29.389Z,16064.00
2023-05-02T10:58:29.373Z,15848.00
2023-05-02T10:59:29.366Z,15632.00
2023-05-02T11:00:29.446Z,18560.00
2023-05-02T11:01:29.453Z,27744.00
2023-05-02T11:02:29.406Z,22976.00
2023-05-02T11:03:29.334Z,18144.00
2023-05-02T11:04:30.587Z,17216.00
2023-05-02T11:05:29.294Z,13576.00
2023-05-02T11:06:29.311Z,9428.00
2023-05-02T11:07:29.279Z,8148.00
2023-05-02T11:08:29.282Z,8268.00
2023-05-02T11:09:29.261Z,8320.00
2023-05-02T11:10:29.239Z,8696.00
2023-05-02T11:11:29.228Z,8672.00
2023-05-02T11:12:29.195Z,8620.00
2023-05-02T11:13:29.188Z,8856.00
2023-05-02T11:14:29.233Z,10448.00
2023-05-02T11:15:29.204Z,11880.00
2023-05-02T11:16:29.239Z,13856.00
2023-05-02T11:17:29.178Z,17408.00
2023-05-02T11:18:29.125Z,19584.00
2023-05-02T11:19:31.236Z,16028.00
2023-05-02T11:20:29.144Z,13124.00
2023-05-02T11:21:29.170Z,11520.00
2023-05-02T11:22:29.084Z,10544.00
2023-05-02T11:23:29.602Z,10396.00
2023-05-02T11:24:29.079Z,10372.00
2023-05-02T11:26:29.040Z,10548.00
2023-05-02T11:27:29.178Z,11024.00
2023-05-02T11:28:29.030Z,12104.00
2023-05-02T11:29:29.010Z,13156.00
2023-05-02T11:30:29.004Z,16896.00
2023-05-02T11:31:29.060Z,25824.00
2023-05-02T11:32:29.080Z,24128.00
2023-05-02T11:33:28.974Z,26720.00
2023-05-02T11:34:28.972Z,31712.00
2023-05-02T11:35:28.954Z,35680.00
2023-05-02T11:36:28.930Z,37152.00
2023-05-02T11:37:29.864Z,27936.00
2023-05-02T11:38:29.033Z,26592.00
2023-05-02T11:39:28.893Z,27648.00
2023-05-02T11:40:28.885Z,28864.00
2023-05-02T11:41:28.887Z,24864.00
2023-05-02T11:42:28.896Z,24512.00
2023-05-02T11:43:31.585Z,28000.00
2023-05-02T11:44:28.915Z,21504.00
2023-05-02T11:45:28.824Z,20672.00
2023-05-02T11:46:28.855Z,23456.00
2023-05-02T11:47:28.839Z,22496.00
2023-05-02T11:48:28.821Z,20288.00
2023-05-02T11:49:28.819Z,17504.00
2023-05-02T11:50:28.778Z,16768.00
2023-05-02T11:51:28.875Z,17664.00
2023-05-02T11:52:28.773Z,20800.00
2023-05-02T11:53:28.738Z,20640.00
2023-05-02T11:54:28.732Z,20000.00
2023-05-02T11:55:28.720Z,20864.00
2023-05-02T11:56:28.719Z,23936.00
2023-05-02T11:57:28.734Z,27104.00
2023-05-02T11:58:28.686Z,25440.00
2023-05-02T11:59:28.669Z,21792.00
2023-05-02T12:00:28.670Z,18976.00
2023-05-02T12:01:28.664Z,16608.00
2023-05-02T12:02:28.732Z,14768.00
2023-05-02T12:03:28.886Z,15128.00
2023-05-02T12:04:28.617Z,15648.00
2023-05-02T12:05:28.643Z,16480.00
2023-05-02T12:06:28.650Z,17472.00
2023-05-02T12:07:28.631Z,18432.00
2023-05-02T12:08:28.571Z,18336.00
2023-05-02T12:09:28.556Z,19168.00
2023-05-02T12:10:28.552Z,19648.00
2023-05-02T12:11:28.550Z,19424.00
2023-05-02T12:12:28.536Z,19072.00
2023-05-02T12:13:28.519Z,18528.00
2023-05-02T12:14:28.516Z,17408.00
2023-05-02T12:15:28.492Z,16832.00
2023-05-02T12:16:28.505Z,15376.00
2023-05-02T12:17:28.527Z,13908.00
2023-05-02T12:18:28.476Z,12744.00